Time;durP1;ratioP1;P1;durP2;ratioP2;P2;SDS_P1;SDS_P2;PMS_P1;PMS_P2;Temp;Humidity;BMP_temperature;BMP_pressure;BME280_temperature;BME280_humidity;BME280_pressure;Samples;Min_cycle;Max_cycle;Signal;HPM_P1;HPM_P2
2023/01/26 00:00:00;;;;;;;3.9;3.8;;;;;;;-0.9;100.0;102340;;;;
2023/01/26 00:01:00;;;;;;;3.9;3.8;;;;;;;-0.8;100.0;102340;;;;
2023/01/26 00:02:00;;;;;;;3.9;3.8;;;;;;;-0.8;100.0;102340;;;;
2023/01/26 00:03:00;;;;;;;3.9;3.8;;;;;;;-0.8;100.0;102340;;;;
2023/01/26 00:04:00;;;;;;;3.9;3.8;;;;;;;-0.8;100.0;102340;;;;
2023/01/26 00:05:00;;;;;;;3.9;3.8;;;;;;;-0.8;100.0;102340;;;;
2023/01/26 00:06:04;;;;;;;3.9;3.8;;;;;;;-0.8;100.0;102340;;;;
2023/01/26 00:07:00;;;;;;;3.9;3.8;;;;;;;-0.7;100.0;102330;;;;
2023/01/26 00:08:00;;;;;;;3.9;3.8;;;;;;;-0.7;100.0;102330;;;;
2023/01/26 00:09:00;;;;;;;3.9;3.8;;;;;;;-0.6;100.0;102330;;;;
2023/01/26 00:10:00;;;;;;;3.9;3.8;;;;;;;-0.6;100.0;102330;;;;
2023/01/26 00:11:02;;;;;;;3.9;3.8;;;;;;;-0.6;100.0;102330;;;;
2023/01/26 00:12:00;;;;;;;3.9;3.8;;;;;;;-0.6;100.0;102330;;;;
2023/01/26 00:13:00;;;;;;;3.9;3.8;;;;;;;-0.7;100.0;102320;;;;
2023/01/26 00:14:00;;;;;;;3.9;3.8;;;;;;;-0.7;100.0;102320;;;;
2023/01/26 00:15:00;;;;;;;3.9;3.8;;;;;;;-0.6;100.0;102320;;;;
2023/01/26 00:16:01;;;;;;;3.9;3.8;;;;;;;-0.6;100.0;102320;;;;
2023/01/26 00:17:00;;;;;;;3.9;3.8;;;;;;;-0.6;100.0;102320;;;;
2023/01/26 00:18:00;;;;;;;3.9;3.8;;;;;;;-0.6;100.0;102320;;;;
2023/01/26 00:19:00;;;;;;;3.9;3.8;;;;;;;-0.6;100.0;102320;;;;
2023/01/26 00:20:00;;;;;;;3.9;3.8;;;;;;;-0.6;100.0;102320;;;;
2023/01/26 00:21:01;;;;;;;3.9;3.8;;;;;;;-0.6;100.0;102320;;;;
2023/01/26 00:22:00;;;;;;;3.9;3.8;;;;;;;-0.6;100.0;102320;;;;
2023/01/26 00:23:00;;;;;;;3.9;3.8;;;;;;;-0.6;100.0;102320;;;;
2023/01/26 00:24:00;;;;;;;3.9;3.8;;;;;;;-0.6;100.0;102320;;;;
2023/01/26 00:25:00;;;;;;;3.9;3.8;;;;;;;-0.6;100.0;102310;;;;
2023/01/26 00:26:00;;;;;;;3.9;3.8;;;;;;;-0.6;100.0;102310;;;;
2023/01/26 00:27:00;;;;;;;3.9;3.8;;;;;;;-0.7;100.0;102310;;;;
2023/01/26 00:28:00;;;;;;;3.9;3.8;;;;;;;-0.7;100.0;102310;;;;
2023/01/26 00:29:00;;;;;;;3.9;3.8;;;;;;;-0.7;100.0;102310;;;;
2023/01/26 00:30:00;;;;;;;3.9;3.8;;;;;;;-0.7;100.0;102310;;;;
2023/01/26 00:31:03;;;;;;;3.9;3.8;;;;;;;-0.7;100.0;102310;;;;
2023/01/26 00:32:00;;;;;;;3.9;3.8;;;;;;;-0.7;100.0;102310;;;;
2023/01/26 00:33:00;;;;;;;4.2;4.1;;;;;;;-0.8;100.0;102300;;;;
2023/01/26 00:34:00;;;;;;;4.2;4.1;;;;;;;-0.8;100.0;102300;;;;
2023/01/26 00:35:00;;;;;;;4.2;4.1;;;;;;;-0.8;100.0;102300;;;;
2023/01/26 00:36:00;;;;;;;4.2;4.1;;;;;;;-0.8;100.0;102300;;;;
2023/01/26 00:37:00;;;;;;;4.2;4.1;;;;;;;-0.8;100.0;102300;;;;
2023/01/26 00:38:00;;;;;;;4.2;4.1;;;;;;;-0.8;100.0;102300;;;;
2023/01/26 00:39:01;;;;;;;4.2;4.1;;;;;;;-0.8;100.0;102300;;;;
2023/01/26 00:40:00;;;;;;;4.2;4.1;;;;;;;-0.8;100.0;102300;;;;
2023/01/26 00:41:00;;;;;;;4.2;4.1;;;;;;;-0.8;100.0;102300;;;;
2023/01/26 00:43:00;;;;;;;4.2;4.1;;;;;;;-0.9;100.0;102300;;;;
2023/01/26 00:44:00;;;;;;;4.2;4.1;;;;;;;-0.9;100.0;102300;;;;
2023/01/26 00:45:00;;;;;;;4.2;4.1;;;;;;;-0.9;100.0;102290;;;;
2023/01/26 00:46:00;;;;;;;4.2;4.1;;;;;;;-0.9;100.0;102290;;;;
2023/01/26 00:47:00;;;;;;;4.2;4.1;;;;;;;-0.8;100.0;102290;;;;
2023/01/26 00:48:00;;;;;;;4.2;4.1;;;;;;;-0.8;100.0;102290;;;;
2023/01/26 00:49:00;;;;;;;4.2;4.1;;;;;;;-0.8;100.0;102290;;;;
2023/01/26 00:50:00;;;;;;;4.2;4.1;;;;;;;-0.8;100.0;102290;;;;
2023/01/26 00:51:00;;;;;;;4.2;4.1;;;;;;;-0.9;100.0;102290;;;;
2023/01/26 00:52:00;;;;;;;4.2;4.1;;;;;;;-0.9;100.0;102290;;;;
2023/01/26 00:53:00;;;;;;;4.2;4.1;;;;;;;-0.9;100.0;102290;;;;
2023/01/26 00:54:00;;;;;;;4.2;4.1;;;;;;;-0.9;100.0;102290;;;;
2023/01/26 00:55:00;;;;;;;4.2;4.1;;;;;;;-0.9;100.0;102280;;;;
2023/01/26 00:56:00;;;;;;;4.2;4.1;;;;;;;-0.9;100.0;102280;;;;
2023/01/26 00:57:00;;;;;;;4.2;4.1;;;;;;;-0.8;100.0;102280;;;;
2023/01/26 00:58:00;;;;;;;4.2;4.1;;;;;;;-0.8;100.0;102280;;;;
2023/01/26 00:59:00;;;;;;;4.2;4.1;;;;;;;-0.9;100.0;102280;;;;
2023/01/26 01:00:00;;;;;;;4.2;4.1;;;;;;;-0.9;100.0;102280;;;;
2023/01/26 01:01:00;;;;;;;4.2;4.1;;;;;;;-0.7;100.0;102280;;;;
2023/01/26 01:02:01;;;;;;;4.2;4.1;;;;;;;-0.7;100.0;102280;;;;
2023/01/26 01:03:00;;;;;;;4.2;4.1;;;;;;;-0.6;100.0;102280;;;;
2023/01/26 01:04:00;;;;;;;4.2;4.1;;;;;;;-0.6;100.0;102280;;;;
2023/01/26 01:05:00;;;;;;;4.2;4.1;;;;;;;-0.7;100.0;102270;;;;
2023/01/26 01:06:00;;;;;;;4.2;4.1;;;;;;;-0.7;100.0;102270;;;;
2023/01/26 01:07:00;;;;;;;4.2;4.1;;;;;;;-0.9;100.0;102270;;;;
2023/01/26 01:08:00;;;;;;;4.2;4.1;;;;;;;-0.9;100.0;102270;;;;
2023/01/26 01:09:00;;;;;;;4.2;4.1;;;;;;;-0.8;100.0;102270;;;;
2023/01/26 01:10:00;;;;;;;4.2;4.1;;;;;;;-0.8;100.0;102270;;;;
2023/01/26 01:11:02;;;;;;;4.2;4.1;;;;;;;-0.9;100.0;102270;;;;
2023/01/26 01:12:00;;;;;;;4.2;4.1;;;;;;;-0.9;100.0;102270;;;;
2023/01/26 01:13:00;;;;;;;3.7;3.6;;;;;;;-0.9;100.0;102270;;;;
2023/01/26 01:14:00;;;;;;;3.7;3.6;;;;;;;-0.9;100.0;102270;;;;
2023/01/26 01:15:00;;;;;;;3.7;3.6;;;;;;;-0.8;100.0;102270;;;;
2023/01/26 01:16:03;;;;;;;3.7;3.6;;;;;;;-0.8;100.0;102270;;;;
2023/01/26 01:17:00;;;;;;;3.7;3.6;;;;;;;-0.8;100.0;102270;;;;
2023/01/26 01:18:00;;;;;;;3.7;3.6;;;;;;;-0.8;100.0;102270;;;;
2023/01/26 01:19:00;;;;;;;3.7;3.6;;;;;;;-0.8;100.0;102270;;;;
2023/01/26 01:20:00;;;;;;;3.7;3.6;;;;;;;-0.8;100.0;102270;;;;
2023/01/26 01:21:04;;;;;;;3.7;3.6;;;;;;;-0.8;100.0;102260;;;;
2023/01/26 01:22:00;;;;;;;3.7;3.6;;;;;;;-0.8;100.0;102260;;;;
2023/01/26 01:23:00;;;;;;;3.7;3.6;;;;;;;-0.8;100.0;102260;;;;
2023/01/26 01:24:00;;;;;;;3.7;3.6;;;;;;;-0.8;100.0;102260;;;;
2023/01/26 01:25:00;;;;;;;3.7;3.6;;;;;;;-0.9;100.0;102260;;;;
2023/01/26 01:26:00;;;;;;;3.7;3.6;;;;;;;-0.9;100.0;102260;;;;
2023/01/26 01:27:00;;;;;;;3.7;3.6;;;;;;;-0.9;100.0;102260;;;;
2023/01/26 01:28:00;;;;;;;3.7;3.6;;;;;;;-0.9;100.0;102260;;;;
2023/01/26 01:29:00;;;;;;;3.7;3.6;;;;;;;-0.8;100.0;102270;;;;
2023/01/26 01:30:00;;;;;;;3.7;3.6;;;;;;;-0.8;100.0;102270;;;;
2023/01/26 01:31:04;;;;;;;3.7;3.6;;;;;;;-0.8;100.0;102270;;;;
2023/01/26 01:32:00;;;;;;;3.7;3.6;;;;;;;-0.8;100.0;102270;;;;
2023/01/26 01:33:00;;;;;;;4.1;4.0;;;;;;;-0.6;100.0;102270;;;;
2023/01/26 01:34:00;;;;;;;4.1;4.0;;;;;;;-0.6;100.0;102270;;;;
2023/01/26 01:35:00;;;;;;;4.1;4.0;;;;;;;-0.7;100.0;102260;;;;
2023/01/26 01:36:02;;;;;;;4.1;4.0;;;;;;;-0.7;100.0;102260;;;;
2023/01/26 01:37:00;;;;;;;4.1;4.0;;;;;;;-0.6;100.0;102270;;;;
2023/01/26 01:38:00;;;;;;;4.1;4.0;;;;;;;-0.6;100.0;102270;;;;
2023/01/26 01:39:00;;;;;;;4.1;4.0;;;;;;;-0.8;100.0;102260;;;;
2023/01/26 01:40:00;;;;;;;4.1;4.0;;;;;;;-0.8;100.0;102260;;;;
2023/01/26 01:41:00;;;;;;;4.1;4.0;;;;;;;-0.7;100.0;102260;;;;
2023/01/26 01:42:00;;;;;;;4.1;4.0;;;;;;;-0.7;100.0;102260;;;;
2023/01/26 01:43:00;;;;;;;4.1;4.0;;;;;;;-0.7;100.0;102260;;;;
2023/01/26 01:44:10;;;;;;;4.1;4.0;;;;;;;-0.7;100.0;102260;;;;
2023/01/26 01:45:10;;;;;;;4.1;4.0;;;;;;;-0.7;100.0;102260;;;;
2023/01/26 01:46:01;;;;;;;4.1;4.0;;;;;;;-0.7;100.0;102260;;;;
2023/01/26 01:47:02;;;;;;;4.1;4.0;;;;;;;-0.7;100.0;102270;;;;
2023/01/26 01:48:01;;;;;;;4.1;4.0;;;;;;;-0.7;100.0;102270;;;;
2023/01/26 01:49:02;;;;;;;4.1;4.0;;;;;;;-0.6;100.0;102270;;;;
2023/01/26 01:50:03;;;;;;;4.1;4.0;;;;;;;-0.6;100.0;102270;;;;
2023/01/26 01:51:04;;;;;;;4.1;4.0;;;;;;;-0.6;100.0;102270;;;;
2023/01/26 01:52:10;;;;;;;3.6;3.5;;;;;;;-0.6;100.0;102270;;;;
2023/01/26 01:53:00;;;;;;;3.6;3.5;;;;;;;-0.6;100.0;102270;;;;
2023/01/26 01:54:03;;;;;;;3.6;3.5;;;;;;;-0.6;100.0;102270;;;;
2023/01/26 01:55:06;;;;;;;3.6;3.5;;;;;;;-0.7;100.0;102270;;;;
2023/01/26 01:56:03;;;;;;;3.6;3.5;;;;;;;-0.7;100.0;102270;;;;
2023/01/26 01:57:02;;;;;;;3.6;3.5;;;;;;;-0.5;100.0;102270;;;;
2023/01/26 01:58:02;;;;;;;3.6;3.5;;;;;;;-0.5;100.0;102270;;;;
2023/01/26 01:59:01;;;;;;;3.6;3.5;;;;;;;-0.6;100.0;102260;;;;
2023/01/26 02:00:04;;;;;;;3.6;3.5;;;;;;;-0.6;100.0;102260;;;;
2023/01/26 02:01:00;;;;;;;3.6;3.5;;;;;;;-0.7;100.0;102260;;;;
2023/01/26 02:02:00;;;;;;;3.6;3.5;;;;;;;-0.7;100.0;102260;;;;
2023/01/26 02:03:13;;;;;;;3.6;3.5;;;;;;;-0.6;100.0;102260;;;;
2023/01/26 02:04:01;;;;;;;3.6;3.5;;;;;;;-0.6;100.0;102260;;;;
2023/01/26 02:05:09;;;;;;;3.6;3.5;;;;;;;-0.5;100.0;102260;;;;
2023/01/26 02:06:02;;;;;;;3.6;3.5;;;;;;;-0.5;100.0;102260;;;;
2023/01/26 02:07:00;;;;;;;3.6;3.5;;;;;;;-0.5;100.0;102260;;;;
2023/01/26 02:08:01;;;;;;;3.6;3.5;;;;;;;-0.5;100.0;102260;;;;
2023/01/26 02:09:00;;;;;;;3.6;3.5;;;;;;;-0.6;100.0;102260;;;;
2023/01/26 02:11:03;;;;;;;3.6;3.5;;;;;;;-0.5;100.0;102250;;;;
2023/01/26 02:12:02;;;;;;;4.1;4.0;;;;;;;-0.5;100.0;102250;;;;
2023/01/26 02:13:00;;;;;;;4.1;4.0;;;;;;;-0.4;100.0;102250;;;;
2023/01/26 02:14:02;;;;;;;4.1;4.0;;;;;;;-0.4;100.0;102250;;;;
2023/01/26 02:15:00;;;;;;;4.1;4.0;;;;;;;-0.5;100.0;102250;;;;
2023/01/26 02:16:00;;;;;;;4.1;4.0;;;;;;;-0.5;100.0;102250;;;;
2023/01/26 02:17:00;;;;;;;4.1;4.0;;;;;;;-0.4;100.0;102250;;;;
2023/01/26 02:18:01;;;;;;;4.1;4.0;;;;;;;-0.4;100.0;102250;;;;
2023/01/26 02:19:00;;;;;;;4.1;4.0;;;;;;;-0.4;100.0;102240;;;;
2023/01/26 02:20:07;;;;;;;4.1;4.0;;;;;;;-0.4;100.0;102240;;;;
2023/01/26 02:21:01;;;;;;;4.1;4.0;;;;;;;-0.5;100.0;102240;;;;
2023/01/26 02:22:05;;;;;;;4.1;4.0;;;;;;;-0.5;100.0;102240;;;;
2023/01/26 02:23:10;;;;;;;4.1;4.0;;;;;;;-0.4;100.0;102240;;;;
2023/01/26 02:24:10;;;;;;;4.1;4.0;;;;;;;-0.4;100.0;102240;;;;
2023/01/26 02:25:04;;;;;;;4.1;4.0;;;;;;;-0.4;100.0;102240;;;;
2023/01/26 02:26:02;;;;;;;4.1;4.0;;;;;;;-0.4;100.0;102240;;;;
2023/01/26 02:27:00;;;;;;;4.1;4.0;;;;;;;-0.5;100.0;102240;;;;
2023/01/26 02:28:00;;;;;;;4.1;4.0;;;;;;;-0.5;100.0;102240;;;;
2023/01/26 02:29:01;;;;;;;4.1;4.0;;;;;;;-0.4;100.0;102230;;;;
2023/01/26 02:30:01;;;;;;;4.1;4.0;;;;;;;-0.4;100.0;102230;;;;
2023/01/26 02:31:00;;;;;;;4.1;4.0;;;;;;;-0.4;100.0;102230;;;;
2023/01/26 02:32:00;;;;;;;4.4;4.2;;;;;;;-0.4;100.0;102230;;;;
2023/01/26 02:33:00;;;;;;;4.4;4.2;;;;;;;-0.4;100.0;102240;;;;
2023/01/26 02:34:00;;;;;;;4.4;4.2;;;;;;;-0.4;100.0;102240;;;;
2023/01/26 02:35:00;;;;;;;4.4;4.2;;;;;;;-0.5;100.0;102240;;;;
2023/01/26 02:36:01;;;;;;;4.4;4.2;;;;;;;-0.5;100.0;102240;;;;
2023/01/26 02:37:00;;;;;;;4.4;4.2;;;;;;;-0.4;100.0;102240;;;;
2023/01/26 02:38:00;;;;;;;4.4;4.2;;;;;;;-0.4;100.0;102240;;;;
2023/01/26 02:39:10;;;;;;;4.4;4.2;;;;;;;-0.5;100.0;102240;;;;
2023/01/26 02:40:04;;;;;;;4.4;4.2;;;;;;;-0.5;100.0;102240;;;;
2023/01/26 02:41:04;;;;;;;4.4;4.2;;;;;;;-0.5;100.0;102240;;;;
2023/01/26 02:43:01;;;;;;;4.4;4.2;;;;;;;-0.5;100.0;102230;;;;
2023/01/26 02:44:01;;;;;;;4.4;4.2;;;;;;;-0.5;100.0;102230;;;;
2023/01/26 02:45:00;;;;;;;4.4;4.2;;;;;;;-0.4;100.0;102230;;;;
2023/01/26 02:46:00;;;;;;;4.4;4.2;;;;;;;-0.4;100.0;102230;;;;
2023/01/26 02:47:00;;;;;;;4.4;4.2;;;;;;;-0.4;100.0;102230;;;;
2023/01/26 02:48:03;;;;;;;4.4;4.2;;;;;;;-0.4;100.0;102230;;;;
2023/01/26 02:50:00;;;;;;;4.4;4.2;;;;;;;-0.5;100.0;102230;;;;
2023/01/26 02:51:00;;;;;;;4.4;4.2;;;;;;;-0.4;100.0;102230;;;;
2023/01/26 02:52:00;;;;;;;3.5;3.4;;;;;;;-0.4;100.0;102230;;;;
2023/01/26 02:53:00;;;;;;;3.5;3.4;;;;;;;-0.4;100.0;102230;;;;
2023/01/26 02:54:00;;;;;;;3.5;3.4;;;;;;;-0.4;100.0;102230;;;;
2023/01/26 02:56:00;;;;;;;3.5;3.4;;;;;;;-0.4;100.0;102230;;;;
2023/01/26 02:57:00;;;;;;;3.5;3.4;;;;;;;-0.5;100.0;102230;;;;
2023/01/26 02:58:01;;;;;;;3.5;3.4;;;;;;;-0.5;100.0;102230;;;;
2023/01/26 02:59:00;;;;;;;3.5;3.4;;;;;;;-0.5;100.0;102230;;;;
2023/01/26 03:00:00;;;;;;;3.5;3.4;;;;;;;-0.5;100.0;102230;;;;
2023/01/26 03:01:00;;;;;;;3.5;3.4;;;;;;;-0.6;100.0;102230;;;;
2023/01/26 03:02:00;;;;;;;3.5;3.4;;;;;;;-0.6;100.0;102230;;;;
2023/01/26 03:03:00;;;;;;;3.5;3.4;;;;;;;-0.4;100.0;102230;;;;
2023/01/26 03:04:00;;;;;;;3.5;3.4;;;;;;;-0.4;100.0;102230;;;;
2023/01/26 03:05:00;;;;;;;3.5;3.4;;;;;;;-0.5;100.0;102220;;;;
2023/01/26 03:06:00;;;;;;;3.5;3.4;;;;;;;-0.5;100.0;102220;;;;
2023/01/26 03:07:00;;;;;;;3.5;3.4;;;;;;;-0.6;100.0;102220;;;;
2023/01/26 03:08:00;;;;;;;3.5;3.4;;;;;;;-0.6;100.0;102220;;;;
2023/01/26 03:09:00;;;;;;;3.5;3.4;;;;;;;-0.6;100.0;102220;;;;
2023/01/26 03:10:00;;;;;;;3.5;3.4;;;;;;;-0.6;100.0;102220;;;;
2023/01/26 03:11:00;;;;;;;3.5;3.4;;;;;;;-0.5;100.0;102220;;;;
2023/01/26 03:12:00;;;;;;;4.1;4.0;;;;;;;-0.5;100.0;102220;;;;
2023/01/26 03:13:00;;;;;;;4.1;4.0;;;;;;;-0.5;100.0;102220;;;;
2023/01/26 03:14:00;;;;;;;4.1;4.0;;;;;;;-0.5;100.0;102220;;;;
2023/01/26 03:16:05;;;;;;;4.1;4.0;;;;;;;-0.4;100.0;102220;;;;
2023/01/26 03:17:00;;;;;;;4.1;4.0;;;;;;;-0.5;100.0;102220;;;;
2023/01/26 03:28:00;;;;;;;4.1;4.0;;;;;;;-0.3;100.0;102220;;;;
2023/01/26 03:29:00;;;;;;;4.1;4.0;;;;;;;-0.3;100.0;102220;;;;
2023/01/26 03:30:00;;;;;;;4.1;4.0;;;;;;;-0.3;100.0;102220;;;;
2023/01/26 03:31:00;;;;;;;4.1;4.0;;;;;;;-0.3;100.0;102220;;;;
2023/01/26 03:32:00;;;;;;;3.9;3.8;;;;;;;-0.3;100.0;102220;;;;
2023/01/26 03:33:00;;;;;;;3.9;3.8;;;;;;;-0.3;100.0;102220;;;;
2023/01/26 03:34:00;;;;;;;3.9;3.8;;;;;;;-0.3;100.0;102220;;;;
2023/01/26 03:35:00;;;;;;;3.9;3.8;;;;;;;-0.3;100.0;102220;;;;
2023/01/26 03:36:00;;;;;;;3.9;3.8;;;;;;;-0.3;100.0;102220;;;;
2023/01/26 03:37:00;;;;;;;3.9;3.8;;;;;;;-0.4;100.0;102220;;;;
2023/01/26 03:38:00;;;;;;;3.9;3.8;;;;;;;-0.4;100.0;102220;;;;
2023/01/26 03:39:00;;;;;;;3.9;3.8;;;;;;;-0.3;100.0;102220;;;;
2023/01/26 03:57:00;;;;;;;3.7;3.6;;;;;;;-0.3;100.0;102210;;;;
2023/01/26 03:58:00;;;;;;;3.7;3.6;;;;;;;-0.3;100.0;102210;;;;
2023/01/26 03:59:09;;;;;;;3.7;3.6;;;;;;;-0.2;100.0;102210;;;;
2023/01/26 04:00:00;;;;;;;3.7;3.6;;;;;;;-0.2;100.0;102210;;;;
2023/01/26 04:01:00;;;;;;;3.7;3.6;;;;;;;-0.2;100.0;102210;;;;
2023/01/26 04:09:00;;;;;;;3.7;3.6;;;;;;;-0.3;100.0;102210;;;;
2023/01/26 04:10:00;;;;;;;3.7;3.6;;;;;;;-0.3;100.0;102210;;;;
2023/01/26 04:11:00;;;;;;;3.7;3.6;;;;;;;-0.3;100.0;102210;;;;
2023/01/26 04:12:00;;;;;;;3.8;3.7;;;;;;;-0.3;100.0;102210;;;;
2023/01/26 04:22:00;;;;;;;3.8;3.7;;;;;;;-0.3;100.0;102210;;;;
2023/01/26 04:23:00;;;;;;;3.8;3.7;;;;;;;-0.2;100.0;102210;;;;
2023/01/26 04:24:01;;;;;;;3.8;3.7;;;;;;;-0.2;100.0;102210;;;;
2023/01/26 04:25:00;;;;;;;3.8;3.7;;;;;;;-0.1;100.0;102210;;;;
2023/01/26 04:26:00;;;;;;;3.8;3.7;;;;;;;-0.1;100.0;102210;;;;
2023/01/26 04:27:00;;;;;;;3.8;3.7;;;;;;;-0.1;100.0;102210;;;;
2023/01/26 04:28:00;;;;;;;3.8;3.7;;;;;;;-0.1;100.0;102210;;;;
2023/01/26 04:29:01;;;;;;;3.8;3.7;;;;;;;-0.1;100.0;102210;;;;
2023/01/26 04:30:00;;;;;;;3.8;3.7;;;;;;;-0.1;100.0;102210;;;;
2023/01/26 04:31:00;;;;;;;3.8;3.7;;;;;;;-0.1;100.0;102210;;;;
2023/01/26 04:32:00;;;;;;;3.9;3.8;;;;;;;-0.1;100.0;102210;;;;
2023/01/26 04:33:00;;;;;;;3.9;3.8;;;;;;;-0.2;100.0;102200;;;;
2023/01/26 04:34:01;;;;;;;3.9;3.8;;;;;;;-0.2;100.0;102200;;;;
2023/01/26 04:35:00;;;;;;;3.9;3.8;;;;;;;-0.1;100.0;102210;;;;
2023/01/26 04:36:02;;;;;;;3.9;3.8;;;;;;;-0.1;100.0;102210;;;;
2023/01/26 04:37:00;;;;;;;3.9;3.8;;;;;;;0.0;100.0;102210;;;;
2023/01/26 04:38:00;;;;;;;3.9;3.8;;;;;;;0.0;100.0;102210;;;;
2023/01/26 04:39:00;;;;;;;3.9;3.8;;;;;;;0.0;100.0;102210;;;;
2023/01/26 04:40:00;;;;;;;3.9;3.8;;;;;;;0.0;100.0;102210;;;;
2023/01/26 04:41:00;;;;;;;3.9;3.8;;;;;;;-0.0;100.0;102210;;;;
2023/01/26 04:42:00;;;;;;;3.9;3.8;;;;;;;-0.0;100.0;102210;;;;
2023/01/26 04:43:00;;;;;;;3.9;3.8;;;;;;;-0.1;100.0;102210;;;;
2023/01/26 04:44:00;;;;;;;3.9;3.8;;;;;;;-0.1;100.0;102210;;;;
2023/01/26 04:45:00;;;;;;;3.9;3.8;;;;;;;-0.1;100.0;102210;;;;
2023/01/26 04:46:01;;;;;;;3.9;3.8;;;;;;;-0.1;100.0;102210;;;;
2023/01/26 04:47:00;;;;;;;3.9;3.8;;;;;;;-0.1;100.0;102210;;;;
2023/01/26 04:48:00;;;;;;;3.9;3.8;;;;;;;-0.1;100.0;102210;;;;
2023/01/26 04:49:00;;;;;;;3.9;3.8;;;;;;;-0.0;100.0;102210;;;;
2023/01/26 04:50:00;;;;;;;3.9;3.8;;;;;;;-0.0;100.0;102210;;;;
2023/01/26 04:51:02;;;;;;;3.9;3.8;;;;;;;-0.0;100.0;102210;;;;
2023/01/26 04:52:00;;;;;;;3.8;3.7;;;;;;;-0.0;100.0;102210;;;;
2023/01/26 04:53:00;;;;;;;3.8;3.7;;;;;;;-0.0;100.0;102200;;;;
2023/01/26 04:54:00;;;;;;;3.8;3.7;;;;;;;-0.0;100.0;102200;;;;
2023/01/26 04:55:00;;;;;;;3.8;3.7;;;;;;;-0.0;100.0;102200;;;;
2023/01/26 04:56:00;;;;;;;3.8;3.7;;;;;;;-0.0;100.0;102200;;;;
2023/01/26 04:57:00;;;;;;;3.8;3.7;;;;;;;0.0;100.0;102210;;;;
2023/01/26 04:58:01;;;;;;;3.8;3.7;;;;;;;0.0;100.0;102210;;;;
2023/01/26 04:59:02;;;;;;;3.8;3.7;;;;;;;0.0;100.0;102210;;;;
2023/01/26 05:00:00;;;;;;;3.8;3.7;;;;;;;0.0;100.0;102210;;;;
2023/01/26 05:01:00;;;;;;;3.8;3.7;;;;;;;0.1;100.0;102210;;;;
2023/01/26 05:02:00;;;;;;;3.8;3.7;;;;;;;0.1;100.0;102210;;;;
2023/01/26 05:03:00;;;;;;;3.8;3.7;;;;;;;0.0;100.0;102210;;;;
2023/01/26 05:04:00;;;;;;;3.8;3.7;;;;;;;0.0;100.0;102210;;;;
2023/01/26 05:05:00;;;;;;;3.8;3.7;;;;;;;-0.0;100.0;102200;;;;
2023/01/26 05:06:00;;;;;;;3.8;3.7;;;;;;;-0.0;100.0;102200;;;;
2023/01/26 05:07:00;;;;;;;3.8;3.7;;;;;;;-0.0;100.0;102200;;;;
2023/01/26 05:08:00;;;;;;;3.8;3.7;;;;;;;-0.0;100.0;102200;;;;
2023/01/26 05:09:00;;;;;;;3.8;3.7;;;;;;;-0.1;100.0;102200;;;;
2023/01/26 05:10:00;;;;;;;3.8;3.7;;;;;;;-0.1;100.0;102200;;;;
2023/01/26 05:11:00;;;;;;;3.8;3.7;;;;;;;-0.0;100.0;102200;;;;
2023/01/26 05:12:32;;;;;;;3.8;3.7;;;;;;;-0.0;100.0;102200;;;;
2023/01/26 05:13:00;;;;;;;3.8;3.7;;;;;;;-0.0;100.0;102200;;;;
2023/01/26 05:14:00;;;;;;;3.8;3.7;;;;;;;-0.0;100.0;102200;;;;
2023/01/26 05:15:00;;;;;;;3.8;3.7;;;;;;;-0.0;100.0;102200;;;;
2023/01/26 05:16:01;;;;;;;3.8;3.7;;;;;;;-0.0;100.0;102200;;;;
2023/01/26 05:17:01;;;;;;;3.8;3.7;;;;;;;-0.0;100.0;102200;;;;
2023/01/26 05:18:00;;;;;;;3.8;3.7;;;;;;;-0.0;100.0;102200;;;;
2023/01/26 05:19:00;;;;;;;3.8;3.7;;;;;;;0.0;100.0;102200;;;;
2023/01/26 05:20:00;;;;;;;3.8;3.7;;;;;;;0.0;100.0;102200;;;;
2023/01/26 05:21:00;;;;;;;3.8;3.7;;;;;;;-0.1;100.0;102200;;;;
2023/01/26 05:22:00;;;;;;;3.8;3.7;;;;;;;-0.1;100.0;102200;;;;
2023/01/26 05:23:00;;;;;;;3.8;3.7;;;;;;;0.0;100.0;102200;;;;
2023/01/26 05:24:00;;;;;;;3.8;3.7;;;;;;;0.0;100.0;102200;;;;
2023/01/26 05:25:00;;;;;;;3.8;3.7;;;;;;;-0.0;100.0;102200;;;;
2023/01/26 05:26:00;;;;;;;3.8;3.7;;;;;;;-0.0;100.0;102200;;;;
2023/01/26 05:28:00;;;;;;;3.8;3.7;;;;;;;-0.0;100.0;102200;;;;
2023/01/26 05:29:00;;;;;;;3.8;3.7;;;;;;;0.0;100.0;102200;;;;
2023/01/26 05:30:00;;;;;;;3.8;3.7;;;;;;;0.0;100.0;102200;;;;
2023/01/26 05:31:00;;;;;;;3.4;3.3;;;;;;;-0.0;100.0;102200;;;;
2023/01/26 05:32:00;;;;;;;3.4;3.3;;;;;;;-0.0;100.0;102200;;;;
2023/01/26 05:33:02;;;;;;;3.4;3.3;;;;;;;0.0;100.0;102200;;;;
2023/01/26 05:34:00;;;;;;;3.4;3.3;;;;;;;0.0;100.0;102200;;;;
2023/01/26 05:35:00;;;;;;;3.4;3.3;;;;;;;0.0;100.0;102200;;;;
2023/01/26 05:36:03;;;;;;;3.4;3.3;;;;;;;0.0;100.0;102200;;;;
2023/01/26 05:37:00;;;;;;;3.4;3.3;;;;;;;0.1;100.0;102200;;;;
2023/01/26 05:38:00;;;;;;;3.4;3.3;;;;;;;0.1;100.0;102200;;;;
2023/01/26 05:39:00;;;;;;;3.4;3.3;;;;;;;0.1;100.0;102200;;;;
2023/01/26 05:40:00;;;;;;;3.4;3.3;;;;;;;0.1;100.0;102200;;;;
2023/01/26 05:41:00;;;;;;;3.4;3.3;;;;;;;0.1;100.0;102200;;;;
2023/01/26 05:42:00;;;;;;;3.4;3.3;;;;;;;0.1;100.0;102200;;;;
2023/01/26 05:43:00;;;;;;;3.4;3.3;;;;;;;0.1;100.0;102200;;;;
2023/01/26 05:44:00;;;;;;;3.4;3.3;;;;;;;0.1;100.0;102200;;;;
2023/01/26 05:45:00;;;;;;;3.4;3.3;;;;;;;0.1;100.0;102200;;;;
2023/01/26 05:46:00;;;;;;;3.4;3.3;;;;;;;0.1;100.0;102200;;;;
2023/01/26 05:47:00;;;;;;;3.4;3.3;;;;;;;0.1;100.0;102200;;;;
2023/01/26 05:48:00;;;;;;;3.4;3.3;;;;;;;0.1;100.0;102200;;;;
2023/01/26 05:49:00;;;;;;;3.4;3.3;;;;;;;0.2;100.0;102200;;;;
2023/01/26 05:50:00;;;;;;;3.4;3.3;;;;;;;0.2;100.0;102200;;;;
2023/01/26 05:51:03;;;;;;;3.4;3.3;;;;;;;0.1;100.0;102200;;;;
2023/01/26 05:52:00;;;;;;;3.4;3.3;;;;;;;0.1;100.0;102200;;;;
2023/01/26 05:53:01;;;;;;;3.4;3.3;;;;;;;0.1;100.0;102200;;;;
2023/01/26 05:54:00;;;;;;;3.4;3.3;;;;;;;0.1;100.0;102200;;;;
2023/01/26 05:55:00;;;;;;;3.4;3.3;;;;;;;0.1;100.0;102200;;;;
2023/01/26 05:56:00;;;;;;;3.4;3.3;;;;;;;0.1;100.0;102200;;;;
2023/01/26 05:57:00;;;;;;;3.4;3.3;;;;;;;0.0;100.0;102200;;;;
2023/01/26 05:58:00;;;;;;;3.4;3.3;;;;;;;0.0;100.0;102200;;;;
2023/01/26 05:59:00;;;;;;;3.4;3.3;;;;;;;0.1;100.0;102200;;;;
2023/01/26 06:00:00;;;;;;;3.4;3.3;;;;;;;0.1;100.0;102200;;;;
2023/01/26 06:01:03;;;;;;;3.4;3.3;;;;;;;0.1;100.0;102200;;;;
2023/01/26 06:02:00;;;;;;;3.4;3.3;;;;;;;0.1;100.0;102200;;;;
2023/01/26 06:03:00;;;;;;;3.4;3.3;;;;;;;0.1;100.0;102200;;;;
2023/01/26 06:04:00;;;;;;;3.4;3.3;;;;;;;0.1;100.0;102200;;;;
2023/01/26 06:05:00;;;;;;;3.4;3.3;;;;;;;0.1;100.0;102200;;;;
2023/01/26 06:06:00;;;;;;;3.4;3.3;;;;;;;0.1;100.0;102200;;;;
2023/01/26 06:07:00;;;;;;;3.4;3.3;;;;;;;0.1;100.0;102210;;;;
2023/01/26 06:08:00;;;;;;;3.4;3.3;;;;;;;0.1;100.0;102210;;;;
2023/01/26 06:09:00;;;;;;;3.4;3.3;;;;;;;0.1;100.0;102210;;;;
2023/01/26 06:10:00;;;;;;;3.4;3.3;;;;;;;0.1;100.0;102210;;;;
2023/01/26 06:11:00;;;;;;;3.2;3.1;;;;;;;0.2;100.0;102210;;;;
2023/01/26 06:12:00;;;;;;;3.2;3.1;;;;;;;0.2;100.0;102210;;;;
2023/01/26 06:13:00;;;;;;;3.2;3.1;;;;;;;0.1;100.0;102210;;;;
2023/01/26 06:14:00;;;;;;;3.2;3.1;;;;;;;0.1;100.0;102210;;;;
2023/01/26 06:15:00;;;;;;;3.2;3.1;;;;;;;0.1;100.0;102210;;;;
2023/01/26 06:16:00;;;;;;;3.2;3.1;;;;;;;0.1;100.0;102210;;;;
2023/01/26 06:17:00;;;;;;;3.2;3.1;;;;;;;0.2;100.0;102210;;;;
2023/01/26 06:18:00;;;;;;;3.2;3.1;;;;;;;0.2;100.0;102210;;;;
2023/01/26 06:19:00;;;;;;;3.2;3.1;;;;;;;0.1;100.0;102210;;;;
2023/01/26 06:20:00;;;;;;;3.2;3.1;;;;;;;0.1;100.0;102210;;;;
2023/01/26 06:21:00;;;;;;;3.2;3.1;;;;;;;0.1;100.0;102220;;;;
2023/01/26 06:22:00;;;;;;;3.2;3.1;;;;;;;0.1;100.0;102220;;;;
2023/01/26 06:23:00;;;;;;;3.2;3.1;;;;;;;0.2;100.0;102210;;;;
2023/01/26 06:24:00;;;;;;;3.2;3.1;;;;;;;0.2;100.0;102210;;;;
2023/01/26 06:25:00;;;;;;;3.2;3.1;;;;;;;0.1;100.0;102220;;;;
2023/01/26 06:26:00;;;;;;;3.2;3.1;;;;;;;0.1;100.0;102220;;;;
2023/01/26 06:27:00;;;;;;;3.2;3.1;;;;;;;0.2;100.0;102210;;;;
2023/01/26 06:28:00;;;;;;;3.2;3.1;;;;;;;0.2;100.0;102210;;;;
2023/01/26 06:29:00;;;;;;;3.2;3.1;;;;;;;0.2;100.0;102210;;;;
2023/01/26 06:30:00;;;;;;;3.2;3.1;;;;;;;0.2;100.0;102210;;;;
2023/01/26 06:31:01;;;;;;;3.5;3.4;;;;;;;0.3;100.0;102210;;;;
2023/01/26 06:32:00;;;;;;;3.5;3.4;;;;;;;0.3;100.0;102210;;;;
2023/01/26 06:33:00;;;;;;;3.5;3.4;;;;;;;0.2;100.0;102210;;;;
2023/01/26 06:34:00;;;;;;;3.5;3.4;;;;;;;0.2;100.0;102210;;;;
2023/01/26 06:35:00;;;;;;;3.5;3.4;;;;;;;0.2;100.0;102210;;;;
2023/01/26 06:36:01;;;;;;;3.5;3.4;;;;;;;0.2;100.0;102210;;;;
2023/01/26 06:37:00;;;;;;;3.5;3.4;;;;;;;0.3;100.0;102210;;;;
2023/01/26 06:38:00;;;;;;;3.5;3.4;;;;;;;0.3;100.0;102210;;;;
2023/01/26 06:39:01;;;;;;;3.5;3.4;;;;;;;0.2;100.0;102210;;;;
2023/01/26 06:40:00;;;;;;;3.5;3.4;;;;;;;0.2;100.0;102210;;;;
2023/01/26 06:41:02;;;;;;;3.5;3.4;;;;;;;0.2;100.0;102220;;;;
2023/01/26 06:42:00;;;;;;;3.5;3.4;;;;;;;0.2;100.0;102220;;;;
2023/01/26 06:43:00;;;;;;;3.5;3.4;;;;;;;0.2;100.0;102220;;;;
2023/01/26 06:44:00;;;;;;;3.5;3.4;;;;;;;0.2;100.0;102220;;;;
2023/01/26 06:45:00;;;;;;;3.5;3.4;;;;;;;0.2;100.0;102220;;;;
2023/01/26 06:46:01;;;;;;;3.5;3.4;;;;;;;0.2;100.0;102220;;;;
2023/01/26 06:47:00;;;;;;;3.5;3.4;;;;;;;0.1;100.0;102220;;;;
2023/01/26 06:48:00;;;;;;;3.5;3.4;;;;;;;0.1;100.0;102220;;;;
2023/01/26 06:49:01;;;;;;;3.5;3.4;;;;;;;0.1;100.0;102230;;;;
2023/01/26 06:50:00;;;;;;;3.5;3.4;;;;;;;0.1;100.0;102230;;;;
2023/01/26 06:51:04;;;;;;;3.3;3.2;;;;;;;0.1;100.0;102220;;;;
2023/01/26 06:52:04;;;;;;;3.3;3.2;;;;;;;0.1;100.0;102220;;;;
2023/01/26 06:53:02;;;;;;;3.3;3.2;;;;;;;0.2;100.0;102220;;;;
2023/01/26 06:54:00;;;;;;;3.3;3.2;;;;;;;0.2;100.0;102220;;;;
2023/01/26 06:55:00;;;;;;;3.3;3.2;;;;;;;0.2;100.0;102230;;;;
2023/01/26 06:56:00;;;;;;;3.3;3.2;;;;;;;0.2;100.0;102230;;;;
2023/01/26 06:57:00;;;;;;;3.3;3.2;;;;;;;0.3;100.0;102230;;;;
2023/01/26 06:58:00;;;;;;;3.3;3.2;;;;;;;0.3;100.0;102230;;;;
2023/01/26 06:59:00;;;;;;;3.3;3.2;;;;;;;0.3;100.0;102230;;;;
2023/01/26 07:00:00;;;;;;;3.3;3.2;;;;;;;0.3;100.0;102230;;;;
2023/01/26 07:01:00;;;;;;;3.3;3.2;;;;;;;0.4;100.0;102230;;;;
2023/01/26 07:02:00;;;;;;;3.3;3.2;;;;;;;0.4;100.0;102230;;;;
2023/01/26 07:03:00;;;;;;;3.3;3.2;;;;;;;0.3;100.0;102230;;;;
2023/01/26 07:04:00;;;;;;;3.3;3.2;;;;;;;0.3;100.0;102230;;;;
2023/01/26 07:05:00;;;;;;;3.3;3.2;;;;;;;0.3;100.0;102230;;;;
2023/01/26 07:06:00;;;;;;;3.3;3.2;;;;;;;0.3;100.0;102230;;;;
2023/01/26 07:07:00;;;;;;;3.3;3.2;;;;;;;0.2;100.0;102230;;;;
2023/01/26 07:08:03;;;;;;;3.3;3.2;;;;;;;0.2;100.0;102230;;;;
2023/01/26 07:09:00;;;;;;;3.3;3.2;;;;;;;0.2;100.0;102230;;;;
2023/01/26 07:10:00;;;;;;;3.3;3.2;;;;;;;0.2;100.0;102230;;;;
2023/01/26 07:11:00;;;;;;;3.6;3.5;;;;;;;0.2;100.0;102230;;;;
2023/01/26 07:12:00;;;;;;;3.6;3.5;;;;;;;0.2;100.0;102230;;;;
2023/01/26 07:13:00;;;;;;;3.6;3.5;;;;;;;0.3;100.0;102230;;;;
2023/01/26 07:14:00;;;;;;;3.6;3.5;;;;;;;0.3;100.0;102230;;;;